sensor_id;sensor_type;location;lat;lon;timestamp;P1;durP1;ratioP1;P2;durP2;ratioP2
7033;SDS011;3558;53.176;10.412;2024-02-23T00:00:30;3.13;;;0.70;;
7033;SDS011;3558;53.176;10.412;2024-02-23T00:02:56;2.03;;;0.63;;
7033;SDS011;3558;53.176;10.412;2024-02-23T00:05:22;1.50;;;0.70;;
7033;SDS011;3558;53.176;10.412;2024-02-23T00:07:48;3.55;;;0.80;;
7033;SDS011;3558;53.176;10.412;2024-02-23T00:10:14;1.48;;;0.77;;
7033;SDS011;3558;53.176;10.412;2024-02-23T00:12:40;2.17;;;0.80;;
7033;SDS011;3558;53.176;10.412;2024-02-23T00:15:06;1.80;;;0.80;;
7033;SDS011;3558;53.176;10.412;2024-02-23T00:17:32;1.73;;;0.70;;
7033;SDS011;3558;53.176;10.412;2024-02-23T00:19:57;1.77;;;0.75;;
7033;SDS011;3558;53.176;10.412;2024-02-23T00:22:23;1.83;;;0.60;;
7033;SDS011;3558;53.176;10.412;2024-02-23T00:24:50;1.85;;;0.68;;
7033;SDS011;3558;53.176;10.412;2024-02-23T00:27:16;1.30;;;0.70;;
7033;SDS011;3558;53.176;10.412;2024-02-23T00:29:41;2.65;;;0.75;;
7033;SDS011;3558;53.176;10.412;2024-02-23T00:32:07;2.23;;;0.70;;
7033;SDS011;3558;53.176;10.412;2024-02-23T00:34:33;1.20;;;0.50;;
7033;SDS011;3558;53.176;10.412;2024-02-23T00:36:58;2.37;;;0.70;;
7033;SDS011;3558;53.176;10.412;2024-02-23T00:39:24;1.92;;;0.80;;
7033;SDS011;3558;53.176;10.412;2024-02-23T00:41:49;1.83;;;0.65;;
7033;SDS011;3558;53.176;10.412;2024-02-23T00:44:15;2.77;;;0.70;;
7033;SDS011;3558;53.176;10.412;2024-02-23T00:46:40;1.55;;;0.60;;
7033;SDS011;3558;53.176;10.412;2024-02-23T00:49:06;0.88;;;0.50;;
7033;SDS011;3558;53.176;10.412;2024-02-23T00:51:32;2.33;;;0.70;;
7033;SDS011;3558;53.176;10.412;2024-02-23T00:53:57;1.90;;;0.70;;
7033;SDS011;3558;53.176;10.412;2024-02-23T00:56:23;1.65;;;0.50;;
7033;SDS011;3558;53.176;10.412;2024-02-23T00:58:48;1.95;;;0.60;;
7033;SDS011;3558;53.176;10.412;2024-02-23T01:01:14;1.57;;;0.77;;
7033;SDS011;3558;53.176;10.412;2024-02-23T01:03:39;1.83;;;0.60;;
7033;SDS011;3558;53.176;10.412;2024-02-23T01:06:05;2.75;;;0.52;;
7033;SDS011;3558;53.176;10.412;2024-02-23T01:08:30;1.70;;;0.50;;
7033;SDS011;3558;53.176;10.412;2024-02-23T01:10:56;2.57;;;0.70;;
7033;SDS011;3558;53.176;10.412;2024-02-23T01:13:22;1.73;;;0.80;;
7033;SDS011;3558;53.176;10.412;2024-02-23T01:15:47;2.00;;;0.60;;
7033;SDS011;3558;53.176;10.412;2024-02-23T01:18:13;2.10;;;0.60;;
7033;SDS011;3558;53.176;10.412;2024-02-23T01:20:39;1.52;;;0.55;;
7033;SDS011;3558;53.176;10.412;2024-02-23T01:23:04;2.77;;;0.80;;
7033;SDS011;3558;53.176;10.412;2024-02-23T01:25:30;1.73;;;0.70;;
7033;SDS011;3558;53.176;10.412;2024-02-23T01:27:55;2.80;;;0.73;;
7033;SDS011;3558;53.176;10.412;2024-02-23T01:30:21;2.67;;;0.70;;
7033;SDS011;3558;53.176;10.412;2024-02-23T01:32:46;2.10;;;0.70;;
7033;SDS011;3558;53.176;10.412;2024-02-23T01:35:12;2.13;;;0.70;;
7033;SDS011;3558;53.176;10.412;2024-02-23T01:37:38;3.00;;;1.00;;
7033;SDS011;3558;53.176;10.412;2024-02-23T01:40:03;2.30;;;0.90;;
7033;SDS011;3558;53.176;10.412;2024-02-23T01:42:29;2.60;;;0.90;;
7033;SDS011;3558;53.176;10.412;2024-02-23T01:44:55;2.53;;;0.80;;
7033;SDS011;3558;53.176;10.412;2024-02-23T01:47:23;2.00;;;0.90;;
7033;SDS011;3558;53.176;10.412;2024-02-23T01:49:49;3.30;;;0.90;;
7033;SDS011;3558;53.176;10.412;2024-02-23T01:52:16;2.40;;;0.80;;
7033;SDS011;3558;53.176;10.412;2024-02-23T01:54:42;2.33;;;0.70;;
7033;SDS011;3558;53.176;10.412;2024-02-23T01:57:08;2.10;;;0.80;;
7033;SDS011;3558;53.176;10.412;2024-02-23T01:59:35;1.80;;;0.60;;
7033;SDS011;3558;53.176;10.412;2024-02-23T02:02:03;1.25;;;0.43;;
7033;SDS011;3558;53.176;10.412;2024-02-23T02:04:29;2.58;;;0.60;;
7033;SDS011;3558;53.176;10.412;2024-02-23T02:06:54;1.10;;;0.60;;
7033;SDS011;3558;53.176;10.412;2024-02-23T02:09:21;1.25;;;0.60;;
7033;SDS011;3558;53.176;10.412;2024-02-23T02:11:46;0.60;;;0.40;;
7033;SDS011;3558;53.176;10.412;2024-02-23T02:14:13;1.30;;;0.40;;
7033;SDS011;3558;53.176;10.412;2024-02-23T02:16:39;1.15;;;0.30;;
7033;SDS011;3558;53.176;10.412;2024-02-23T02:19:04;0.50;;;0.30;;
7033;SDS011;3558;53.176;10.412;2024-02-23T02:21:30;0.70;;;0.30;;
7033;SDS011;3558;53.176;10.412;2024-02-23T02:23:57;1.05;;;0.30;;
7033;SDS011;3558;53.176;10.412;2024-02-23T02:26:22;0.38;;;0.20;;
7033;SDS011;3558;53.176;10.412;2024-02-23T02:28:48;0.60;;;0.20;;
7033;SDS011;3558;53.176;10.412;2024-02-23T03:46:19;0.30;;;0.20;;
7033;SDS011;3558;53.176;10.412;2024-02-23T03:48:45;0.10;;;0.10;;
7033;SDS011;3558;53.176;10.412;2024-02-23T03:51:10;0.13;;;0.13;;
7033;SDS011;3558;53.176;10.412;2024-02-23T03:53:36;0.10;;;0.10;;
7033;SDS011;3558;53.176;10.412;2024-02-23T03:56:02;0.20;;;0.20;;
7033;SDS011;3558;53.176;10.412;2024-02-23T03:58:27;0.55;;;0.20;;
7033;SDS011;3558;53.176;10.412;2024-02-23T04:00:53;0.20;;;0.20;;
7033;SDS011;3558;53.176;10.412;2024-02-23T04:03:19;0.37;;;0.20;;
7033;SDS011;3558;53.176;10.412;2024-02-23T04:05:44;0.20;;;0.20;;
7033;SDS011;3558;53.176;10.412;2024-02-23T04:08:10;0.20;;;0.20;;
7033;SDS011;3558;53.176;10.412;2024-02-23T04:10:35;0.27;;;0.20;;
7033;SDS011;3558;53.176;10.412;2024-02-23T04:13:01;0.20;;;0.20;;
7033;SDS011;3558;53.176;10.412;2024-02-23T04:15:26;0.20;;;0.20;;
7033;SDS011;3558;53.176;10.412;2024-02-23T04:17:52;0.30;;;0.20;;
7033;SDS011;3558;53.176;10.412;2024-02-23T04:20:17;0.30;;;0.20;;
7033;SDS011;3558;53.176;10.412;2024-02-23T04:22:43;0.30;;;0.30;;
7033;SDS011;3558;53.176;10.412;2024-02-23T04:25:09;0.80;;;0.50;;
7033;SDS011;3558;53.176;10.412;2024-02-23T04:27:35;0.53;;;0.30;;
7033;SDS011;3558;53.176;10.412;2024-02-23T04:30:00;0.73;;;0.37;;
7033;SDS011;3558;53.176;10.412;2024-02-23T04:32:26;0.60;;;0.38;;
7033;SDS011;3558;53.176;10.412;2024-02-23T04:34:52;0.40;;;0.30;;
7033;SDS011;3558;53.176;10.412;2024-02-23T04:37:17;1.17;;;0.40;;
7033;SDS011;3558;53.176;10.412;2024-02-23T04:39:45;0.80;;;0.30;;
7033;SDS011;3558;53.176;10.412;2024-02-23T04:42:11;0.80;;;0.50;;
7033;SDS011;3558;53.176;10.412;2024-02-23T04:44:36;1.02;;;0.40;;
7033;SDS011;3558;53.176;10.412;2024-02-23T04:47:02;1.17;;;0.50;;
7033;SDS011;3558;53.176;10.412;2024-02-23T04:49:27;0.63;;;0.40;;
7033;SDS011;3558;53.176;10.412;2024-02-23T04:51:53;1.10;;;0.40;;
7033;SDS011;3558;53.176;10.412;2024-02-23T04:54:19;0.82;;;0.50;;
7033;SDS011;3558;53.176;10.412;2024-02-23T04:56:45;1.60;;;0.40;;
7033;SDS011;3558;53.176;10.412;2024-02-23T04:59:12;1.37;;;0.50;;
7033;SDS011;3558;53.176;10.412;2024-02-23T05:01:38;1.70;;;0.50;;
7033;SDS011;3558;53.176;10.412;2024-02-23T05:04:03;0.83;;;0.50;;
7033;SDS011;3558;53.176;10.412;2024-02-23T05:06:29;1.00;;;0.50;;
7033;SDS011;3558;53.176;10.412;2024-02-23T05:08:55;0.90;;;0.40;;
7033;SDS011;3558;53.176;10.412;2024-02-23T05:11:21;1.27;;;0.47;;
7033;SDS011;3558;53.176;10.412;2024-02-23T05:13:46;1.40;;;0.40;;
7033;SDS011;3558;53.176;10.412;2024-02-23T05:16:13;1.00;;;0.50;;
7033;SDS011;3558;53.176;10.412;2024-02-23T05:18:39;1.57;;;0.70;;
7033;SDS011;3558;53.176;10.412;2024-02-23T05:21:06;1.30;;;0.50;;
7033;SDS011;3558;53.176;10.412;2024-02-23T05:23:31;1.30;;;0.50;;
7033;SDS011;3558;53.176;10.412;2024-02-23T05:25:57;0.70;;;0.40;;
7033;SDS011;3558;53.176;10.412;2024-02-23T05:28:22;2.00;;;0.70;;
7033;SDS011;3558;53.176;10.412;2024-02-23T05:30:48;0.83;;;0.50;;
7033;SDS011;3558;53.176;10.412;2024-02-23T05:33:14;0.90;;;0.40;;
7033;SDS011;3558;53.176;10.412;2024-02-23T05:35:39;1.52;;;0.60;;
7033;SDS011;3558;53.176;10.412;2024-02-23T05:38:04;1.13;;;0.50;;
7033;SDS011;3558;53.176;10.412;2024-02-23T05:40:31;1.65;;;0.57;;
7033;SDS011;3558;53.176;10.412;2024-02-23T05:42:57;1.60;;;0.50;;
7033;SDS011;3558;53.176;10.412;2024-02-23T05:45:23;1.40;;;0.60;;
7033;SDS011;3558;53.176;10.412;2024-02-23T05:47:52;1.10;;;0.50;;
7033;SDS011;3558;53.176;10.412;2024-02-23T05:50:17;1.85;;;0.70;;
7033;SDS011;3558;53.176;10.412;2024-02-23T05:52:43;2.33;;;0.80;;
7033;SDS011;3558;53.176;10.412;2024-02-23T05:55:08;1.95;;;0.68;;
7033;SDS011;3558;53.176;10.412;2024-02-23T05:57:34;1.13;;;0.70;;
7033;SDS011;3558;53.176;10.412;2024-02-23T05:59:59;1.45;;;0.60;;
7033;SDS011;3558;53.176;10.412;2024-02-23T06:02:25;0.77;;;0.50;;
7033;SDS011;3558;53.176;10.412;2024-02-23T06:04:50;1.77;;;0.60;;
7033;SDS011;3558;53.176;10.412;2024-02-23T06:07:16;2.63;;;0.80;;
7033;SDS011;3558;53.176;10.412;2024-02-23T06:09:42;1.77;;;0.60;;
7033;SDS011;3558;53.176;10.412;2024-02-23T06:12:08;2.33;;;0.60;;
7033;SDS011;3558;53.176;10.412;2024-02-23T06:14:34;1.83;;;0.60;;
7033;SDS011;3558;53.176;10.412;2024-02-23T06:17:00;1.45;;;0.60;;
7033;SDS011;3558;53.176;10.412;2024-02-23T06:19:26;2.50;;;0.82;;
7033;SDS011;3558;53.176;10.412;2024-02-23T06:21:51;1.15;;;0.60;;
7033;SDS011;3558;53.176;10.412;2024-02-23T06:24:17;2.00;;;0.77;;
7033;SDS011;3558;53.176;10.412;2024-02-23T06:26:42;1.53;;;0.60;;
7033;SDS011;3558;53.176;10.412;2024-02-23T06:29:08;2.27;;;0.67;;
7033;SDS011;3558;53.176;10.412;2024-02-23T06:31:36;1.83;;;0.60;;
7033;SDS011;3558;53.176;10.412;2024-02-23T06:34:03;1.90;;;0.70;;
7033;SDS011;3558;53.176;10.412;2024-02-23T06:36:28;1.77;;;0.60;;
7033;SDS011;3558;53.176;10.412;2024-02-23T06:38:54;1.70;;;0.75;;
7033;SDS011;3558;53.176;10.412;2024-02-23T06:41:19;1.60;;;0.80;;
7033;SDS011;3558;53.176;10.412;2024-02-23T06:43:45;2.65;;;0.70;;
7033;SDS011;3558;53.176;10.412;2024-02-23T06:46:11;2.37;;;0.73;;
7033;SDS011;3558;53.176;10.412;2024-02-23T06:48:36;1.30;;;0.60;;
7033;SDS011;3558;53.176;10.412;2024-02-23T06:51:02;2.00;;;0.67;;
7033;SDS011;3558;53.176;10.412;2024-02-23T06:53:29;2.10;;;0.70;;
7033;SDS011;3558;53.176;10.412;2024-02-23T06:55:55;2.25;;;0.60;;
7033;SDS011;3558;53.176;10.412;2024-02-23T06:58:20;2.77;;;0.93;;
7033;SDS011;3558;53.176;10.412;2024-02-23T07:00:46;1.55;;;0.60;;
7033;SDS011;3558;53.176;10.412;2024-02-23T07:03:11;2.73;;;0.80;;
7033;SDS011;3558;53.176;10.412;2024-02-23T07:05:37;2.10;;;0.70;;
7033;SDS011;3558;53.176;10.412;2024-02-23T07:08:03;3.73;;;0.70;;
7033;SDS011;3558;53.176;10.412;2024-02-23T07:10:28;2.05;;;0.80;;
7033;SDS011;3558;53.176;10.412;2024-02-23T07:12:54;1.77;;;0.60;;
7033;SDS011;3558;53.176;10.412;2024-02-23T07:15:21;2.47;;;0.90;;
7033;SDS011;3558;53.176;10.412;2024-02-23T07:17:47;2.25;;;0.70;;
7033;SDS011;3558;53.176;10.412;2024-02-23T07:20:12;2.23;;;0.80;;
7033;SDS011;3558;53.176;10.412;2024-02-23T07:22:38;2.60;;;0.88;;
7033;SDS011;3558;53.176;10.412;2024-02-23T07:25:07;2.38;;;0.75;;
7033;SDS011;3558;53.176;10.412;2024-02-23T07:27:32;2.87;;;0.90;;
7033;SDS011;3558;53.176;10.412;2024-02-23T07:29:59;2.88;;;0.75;;
7033;SDS011;3558;53.176;10.412;2024-02-23T07:32:24;2.25;;;0.88;;
7033;SDS011;3558;53.176;10.412;2024-02-23T07:34:50;5.22;;;0.90;;
7033;SDS011;3558;53.176;10.412;2024-02-23T07:37:15;2.97;;;0.90;;
7033;SDS011;3558;53.176;10.412;2024-02-23T07:39:41;2.93;;;0.93;;
7033;SDS011;3558;53.176;10.412;2024-02-23T07:42:07;2.33;;;0.90;;
7033;SDS011;3558;53.176;10.412;2024-02-23T07:44:35;2.73;;;1.00;;
7033;SDS011;3558;53.176;10.412;2024-02-23T07:47:00;3.90;;;1.20;;
7033;SDS011;3558;53.176;10.412;2024-02-23T07:49:26;2.13;;;1.00;;
7033;SDS011;3558;53.176;10.412;2024-02-23T07:51:53;2.20;;;0.87;;
7033;SDS011;3558;53.176;10.412;2024-02-23T07:54:19;2.63;;;0.90;;
7033;SDS011;3558;53.176;10.412;2024-02-23T07:56:44;2.73;;;1.00;;
7033;SDS011;3558;53.176;10.412;2024-02-23T07:59:09;2.80;;;0.90;;
7033;SDS011;3558;53.176;10.412;2024-02-23T08:01:35;2.43;;;0.90;;
7033;SDS011;3558;53.176;10.412;2024-02-23T08:04:00;3.07;;;0.80;;
7033;SDS011;3558;53.176;10.412;2024-02-23T08:06:26;2.30;;;0.83;;
7033;SDS011;3558;53.176;10.412;2024-02-23T08:08:52;3.60;;;0.93;;
7033;SDS011;3558;53.176;10.412;2024-02-23T08:11:19;3.42;;;1.00;;
7033;SDS011;3558;53.176;10.412;2024-02-23T08:13:44;3.20;;;0.90;;
7033;SDS011;3558;53.176;10.412;2024-02-23T08:16:10;2.70;;;0.70;;
7033;SDS011;3558;53.176;10.412;2024-02-23T08:18:35;4.00;;;0.90;;
7033;SDS011;3558;53.176;10.412;2024-02-23T08:21:01;3.45;;;0.90;;
7033;SDS011;3558;53.176;10.412;2024-02-23T08:23:28;3.10;;;0.95;;
7033;SDS011;3558;53.176;10.412;2024-02-23T08:25:54;3.80;;;0.90;;
7033;SDS011;3558;53.176;10.412;2024-02-23T08:28:21;3.70;;;1.10;;
7033;SDS011;3558;53.176;10.412;2024-02-23T08:30:47;3.38;;;0.80;;
7033;SDS011;3558;53.176;10.412;2024-02-23T08:33:13;1.75;;;0.70;;
7033;SDS011;3558;53.176;10.412;2024-02-23T08:35:39;2.53;;;0.93;;
7033;SDS011;3558;53.176;10.412;2024-02-23T08:38:04;2.80;;;0.83;;
7033;SDS011;3558;53.176;10.412;2024-02-23T08:40:30;2.40;;;0.80;;
7033;SDS011;3558;53.176;10.412;2024-02-23T08:42:56;2.33;;;0.80;;
7033;SDS011;3558;53.176;10.412;2024-02-23T08:45:21;3.50;;;0.90;;
7033;SDS011;3558;53.176;10.412;2024-02-23T08:47:47;2.50;;;0.98;;
7033;SDS011;3558;53.176;10.412;2024-02-23T08:50:12;2.70;;;0.80;;
7033;SDS011;3558;53.176;10.412;2024-02-23T08:52:38;2.97;;;1.20;;
7033;SDS011;3558;53.176;10.412;2024-02-23T08:55:03;3.42;;;1.00;;
7033;SDS011;3558;53.176;10.412;2024-02-23T08:57:29;2.83;;;1.00;;
7033;SDS011;3558;53.176;10.412;2024-02-23T08:59:54;2.97;;;0.73;;
7033;SDS011;3558;53.176;10.412;2024-02-23T09:02:23;2.42;;;0.90;;
7033;SDS011;3558;53.176;10.412;2024-02-23T09:04:49;2.35;;;0.80;;
7033;SDS011;3558;53.176;10.412;2024-02-23T09:07:14;2.73;;;0.90;;
7033;SDS011;3558;53.176;10.412;2024-02-23T09:09:40;2.42;;;0.80;;
7033;SDS011;3558;53.176;10.412;2024-02-23T09:12:05;3.22;;;0.90;;
7033;SDS011;3558;53.176;10.412;2024-02-23T09:14:35;3.05;;;0.80;;
7033;SDS011;3558;53.176;10.412;2024-02-23T09:17:02;3.47;;;0.85;;
7033;SDS011;3558;53.176;10.412;2024-02-23T09:19:28;3.08;;;0.75;;
7033;SDS011;3558;53.176;10.412;2024-02-23T09:21:53;2.17;;;0.82;;
7033;SDS011;3558;53.176;10.412;2024-02-23T09:24:19;2.53;;;0.70;;
7033;SDS011;3558;53.176;10.412;2024-02-23T09:26:48;3.17;;;0.90;;
7033;SDS011;3558;53.176;10.412;2024-02-23T09:29:13;2.13;;;0.80;;
7033;SDS011;3558;53.176;10.412;2024-02-23T09:31:39;3.25;;;1.02;;
7033;SDS011;3558;53.176;10.412;2024-02-23T09:34:04;3.35;;;0.93;;
7033;SDS011;3558;53.176;10.412;2024-02-23T09:36:30;2.50;;;0.80;;
7033;SDS011;3558;53.176;10.412;2024-02-23T09:38:55;2.50;;;1.00;;
7033;SDS011;3558;53.176;10.412;2024-02-23T09:41:21;1.50;;;0.70;;
7033;SDS011;3558;53.176;10.412;2024-02-23T09:43:48;2.30;;;0.90;;
7033;SDS011;3558;53.176;10.412;2024-02-23T09:46:15;2.33;;;0.85;;
7033;SDS011;3558;53.176;10.412;2024-02-23T09:48:44;3.47;;;1.00;;
7033;SDS011;3558;53.176;10.412;2024-02-23T09:51:11;2.28;;;0.85;;
7033;SDS011;3558;53.176;10.412;2024-02-23T09:53:38;3.28;;;0.90;;
7033;SDS011;3558;53.176;10.412;2024-02-23T09:56:04;2.33;;;0.90;;
7033;SDS011;3558;53.176;10.412;2024-02-23T09:58:34;4.07;;;0.93;;
7033;SDS011;3558;53.176;10.412;2024-02-23T10:01:01;2.30;;;0.90;;
7033;SDS011;3558;53.176;10.412;2024-02-23T10:03:28;2.17;;;0.90;;
7033;SDS011;3558;53.176;10.412;2024-02-23T10:05:55;2.90;;;0.93;;
7033;SDS011;3558;53.176;10.412;2024-02-23T10:08:21;2.67;;;0.95;;
7033;SDS011;3558;53.176;10.412;2024-02-23T10:10:47;3.40;;;0.93;;
7033;SDS011;3558;53.176;10.412;2024-02-23T10:13:17;3.78;;;0.90;;
7033;SDS011;3558;53.176;10.412;2024-02-23T10:15:45;2.67;;;0.80;;
7033;SDS011;3558;53.176;10.412;2024-02-23T10:18:11;3.17;;;0.80;;
7033;SDS011;3558;53.176;10.412;2024-02-23T10:20:37;3.50;;;1.10;;
7033;SDS011;3558;53.176;10.412;2024-02-23T10:23:03;3.33;;;0.80;;
7033;SDS011;3558;53.176;10.412;2024-02-23T10:25:29;2.08;;;0.70;;
7033;SDS011;3558;53.176;10.412;2024-02-23T10:27:55;2.70;;;0.80;;
7033;SDS011;3558;53.176;10.412;2024-02-23T10:30:20;3.40;;;0.80;;
7033;SDS011;3558;53.176;10.412;2024-02-23T10:32:46;3.63;;;0.90;;
7033;SDS011;3558;53.176;10.412;2024-02-23T10:35:15;2.17;;;0.80;;
7033;SDS011;3558;53.176;10.412;2024-02-23T10:37:42;2.67;;;1.08;;
7033;SDS011;3558;53.176;10.412;2024-02-23T10:40:10;3.30;;;0.93;;
7033;SDS011;3558;53.176;10.412;2024-02-23T10:42:37;4.28;;;1.00;;
7033;SDS011;3558;53.176;10.412;2024-02-23T10:45:03;3.30;;;1.00;;
7033;SDS011;3558;53.176;10.412;2024-02-23T10:47:31;4.18;;;0.90;;
7033;SDS011;3558;53.176;10.412;2024-02-23T10:50:01;1.92;;;0.77;;
7033;SDS011;3558;53.176;10.412;2024-02-23T10:52:27;3.33;;;0.70;;
7033;SDS011;3558;53.176;10.412;2024-02-23T10:54:54;2.90;;;0.70;;
7033;SDS011;3558;53.176;10.412;2024-02-23T10:57:21;3.38;;;0.70;;
7033;SDS011;3558;53.176;10.412;2024-02-23T10:59:46;2.55;;;0.70;;
7033;SDS011;3558;53.176;10.412;2024-02-23T11:02:13;4.20;;;0.80;;
7033;SDS011;3558;53.176;10.412;2024-02-23T11:04:48;3.40;;;0.70;;
7033;SDS011;3558;53.176;10.412;2024-02-23T11:07:15;2.72;;;0.80;;
7033;SDS011;3558;53.176;10.412;2024-02-23T11:09:48;2.33;;;0.70;;
7033;SDS011;3558;53.176;10.412;2024-02-23T11:12:21;2.33;;;0.60;;
7033;SDS011;3558;53.176;10.412;2024-02-23T11:14:49;3.00;;;0.70;;
7033;SDS011;3558;53.176;10.412;2024-02-23T11:17:18;3.28;;;0.70;;
7033;SDS011;3558;53.176;10.412;2024-02-23T11:19:49;2.17;;;0.70;;
7033;SDS011;3558;53.176;10.412;2024-02-23T11:22:20;2.25;;;0.75;;
7033;SDS011;3558;53.176;10.412;2024-02-23T11:24:49;1.90;;;0.63;;
7033;SDS011;3558;53.176;10.412;2024-02-23T11:27:15;2.05;;;0.57;;
7033;SDS011;3558;53.176;10.412;2024-02-23T11:29:47;2.10;;;0.70;;
7033;SDS011;3558;53.176;10.412;2024-02-23T11:32:14;1.63;;;0.60;;
7033;SDS011;3558;53.176;10.412;2024-02-23T11:34:40;2.40;;;0.60;;
7033;SDS011;3558;53.176;10.412;2024-02-23T11:37:09;3.50;;;0.80;;
7033;SDS011;3558;53.176;10.412;2024-02-23T11:39:38;1.63;;;0.70;;
7033;SDS011;3558;53.176;10.412;2024-02-23T11:42:05;1.60;;;0.70;;
7033;SDS011;3558;53.176;10.412;2024-02-23T11:44:31;2.03;;;0.70;;
7033;SDS011;3558;53.176;10.412;2024-02-23T11:46:58;2.50;;;0.65;;
7033;SDS011;3558;53.176;10.412;2024-02-23T11:49:28;1.55;;;0.52;;
7033;SDS011;3558;53.176;10.412;2024-02-23T11:51:54;1.88;;;0.63;;
7033;SDS011;3558;53.176;10.412;2024-02-23T11:54:20;1.63;;;0.80;;
7033;SDS011;3558;53.176;10.412;2024-02-23T11:56:46;1.90;;;0.50;;
7033;SDS011;3558;53.176;10.412;2024-02-23T11:59:14;2.67;;;0.70;;
7033;SDS011;3558;53.176;10.412;2024-02-23T12:01:40;2.33;;;0.80;;
7033;SDS011;3558;53.176;10.412;2024-02-23T12:04:06;1.30;;;0.60;;
7033;SDS011;3558;53.176;10.412;2024-02-23T12:06:33;2.83;;;0.70;;
7033;SDS011;3558;53.176;10.412;2024-02-23T12:08:58;1.65;;;0.60;;
7033;SDS011;3558;53.176;10.412;2024-02-23T12:11:24;1.63;;;0.55;;
7033;SDS011;3558;53.176;10.412;2024-02-23T12:13:50;1.30;;;0.50;;
7033;SDS011;3558;53.176;10.412;2024-02-23T12:16:16;2.33;;;0.80;;
7033;SDS011;3558;53.176;10.412;2024-02-23T12:18:41;1.45;;;0.60;;
7033;SDS011;3558;53.176;10.412;2024-02-23T12:21:08;1.57;;;0.53;;
7033;SDS011;3558;53.176;10.412;2024-02-23T12:26:10;2.35;;;0.60;;
7033;SDS011;3558;53.176;10.412;2024-02-23T12:28:38;1.55;;;0.60;;
7033;SDS011;3558;53.176;10.412;2024-02-23T12:31:04;1.70;;;0.60;;
7033;SDS011;3558;53.176;10.412;2024-02-23T12:33:34;1.80;;;0.63;;
7033;SDS011;3558;53.176;10.412;2024-02-23T12:36:00;2.42;;;0.65;;
7033;SDS011;3558;53.176;10.412;2024-02-23T12:38:27;1.38;;;0.50;;
7033;SDS011;3558;53.176;10.412;2024-02-23T12:40:52;1.20;;;0.50;;
7033;SDS011;3558;53.176;10.412;2024-02-23T12:43:18;1.55;;;0.65;;
7033;SDS011;3558;53.176;10.412;2024-02-23T12:45:46;2.15;;;0.60;;
7033;SDS011;3558;53.176;10.412;2024-02-23T12:48:14;1.02;;;0.45;;
7033;SDS011;3558;53.176;10.412;2024-02-23T12:50:40;1.20;;;0.52;;
7033;SDS011;3558;53.176;10.412;2024-02-23T12:53:06;1.98;;;0.55;;
7033;SDS011;3558;53.176;10.412;2024-02-23T12:55:33;1.58;;;0.50;;
7033;SDS011;3558;53.176;10.412;2024-02-23T12:57:59;2.40;;;0.60;;
7033;SDS011;3558;53.176;10.412;2024-02-23T13:00:24;1.77;;;0.50;;
7033;SDS011;3558;53.176;10.412;2024-02-23T13:02:50;1.30;;;0.60;;
7033;SDS011;3558;53.176;10.412;2024-02-23T13:05:15;1.73;;;0.50;;
7033;SDS011;3558;53.176;10.412;2024-02-23T13:07:41;1.23;;;0.60;;
7033;SDS011;3558;53.176;10.412;2024-02-23T13:10:07;2.13;;;0.50;;
7033;SDS011;3558;53.176;10.412;2024-02-23T13:12:33;1.57;;;0.50;;
7033;SDS011;3558;53.176;10.412;2024-02-23T13:14:58;1.17;;;0.50;;
7033;SDS011;3558;53.176;10.412;2024-02-23T13:17:24;1.20;;;0.40;;
7033;SDS011;3558;53.176;10.412;2024-02-23T13:19:50;2.03;;;0.60;;
7033;SDS011;3558;53.176;10.412;2024-02-23T13:22:15;1.23;;;0.50;;
7033;SDS011;3558;53.176;10.412;2024-02-23T13:24:41;1.70;;;0.80;;
7033;SDS011;3558;53.176;10.412;2024-02-23T13:27:06;1.77;;;0.50;;
7033;SDS011;3558;53.176;10.412;2024-02-23T13:29:32;1.35;;;0.50;;
7033;SDS011;3558;53.176;10.412;2024-02-23T13:31:57;1.87;;;0.60;;
7033;SDS011;3558;53.176;10.412;2024-02-23T13:34:23;1.50;;;0.60;;
7033;SDS011;3558;53.176;10.412;2024-02-23T13:36:48;2.03;;;0.50;;
7033;SDS011;3558;53.176;10.412;2024-02-23T13:39:15;1.50;;;0.60;;
7033;SDS011;3558;53.176;10.412;2024-02-23T13:41:40;1.83;;;0.60;;
7033;SDS011;3558;53.176;10.412;2024-02-23T13:44:06;2.80;;;0.80;;
7033;SDS011;3558;53.176;10.412;2024-02-23T13:46:35;2.17;;;0.50;;
7033;SDS011;3558;53.176;10.412;2024-02-23T13:49:03;1.85;;;0.70;;
7033;SDS011;3558;53.176;10.412;2024-02-23T13:51:30;1.73;;;0.73;;
7033;SDS011;3558;53.176;10.412;2024-02-23T13:53:57;2.38;;;0.57;;
7033;SDS011;3558;53.176;10.412;2024-02-23T13:56:22;1.70;;;0.60;;
7033;SDS011;3558;53.176;10.412;2024-02-23T13:58:47;2.50;;;0.60;;
7033;SDS011;3558;53.176;10.412;2024-02-23T14:01:14;1.40;;;0.60;;
7033;SDS011;3558;53.176;10.412;2024-02-23T14:03:39;1.60;;;0.63;;
7033;SDS011;3558;53.176;10.412;2024-02-23T14:06:05;1.33;;;0.50;;
7033;SDS011;3558;53.176;10.412;2024-02-23T14:08:31;1.77;;;0.77;;
7033;SDS011;3558;53.176;10.412;2024-02-23T14:10:59;1.80;;;0.60;;
7033;SDS011;3558;53.176;10.412;2024-02-23T14:13:25;1.65;;;0.50;;
7033;SDS011;3558;53.176;10.412;2024-02-23T14:15:50;2.17;;;0.90;;
7033;SDS011;3558;53.176;10.412;2024-02-23T14:18:16;1.40;;;0.60;;
7033;SDS011;3558;53.176;10.412;2024-02-23T14:20:41;1.83;;;0.67;;
7033;SDS011;3558;53.176;10.412;2024-02-23T14:23:07;1.80;;;0.60;;
7033;SDS011;3558;53.176;10.412;2024-02-23T14:25:32;1.50;;;0.57;;
7033;SDS011;3558;53.176;10.412;2024-02-23T14:27:58;1.60;;;0.50;;
7033;SDS011;3558;53.176;10.412;2024-02-23T14:30:23;2.60;;;0.60;;
7033;SDS011;3558;53.176;10.412;2024-02-23T14:32:49;3.00;;;0.80;;
7033;SDS011;3558;53.176;10.412;2024-02-23T14:35:14;2.00;;;0.70;;
7033;SDS011;3558;53.176;10.412;2024-02-23T14:37:40;1.88;;;0.82;;
7033;SDS011;3558;53.176;10.412;2024-02-23T14:40:05;2.17;;;0.73;;
7033;SDS011;3558;53.176;10.412;2024-02-23T14:42:31;2.35;;;0.70;;
7033;SDS011;3558;53.176;10.412;2024-02-23T14:44:57;1.23;;;0.70;;
7033;SDS011;3558;53.176;10.412;2024-02-23T14:47:22;1.73;;;0.67;;
7033;SDS011;3558;53.176;10.412;2024-02-23T14:49:48;2.75;;;0.80;;
7033;SDS011;3558;53.176;10.412;2024-02-23T14:52:14;1.93;;;0.70;;
7033;SDS011;3558;53.176;10.412;2024-02-23T14:54:40;1.25;;;0.68;;
7033;SDS011;3558;53.176;10.412;2024-02-23T14:57:06;1.50;;;0.70;;
7033;SDS011;3558;53.176;10.412;2024-02-23T14:59:32;1.45;;;0.68;;
7033;SDS011;3558;53.176;10.412;2024-02-23T15:02:01;2.05;;;0.80;;
7033;SDS011;3558;53.176;10.412;2024-02-23T15:04:26;1.42;;;0.70;;
7033;SDS011;3558;53.176;10.412;2024-02-23T15:06:52;1.67;;;0.70;;
7033;SDS011;3558;53.176;10.412;2024-02-23T15:09:17;2.43;;;0.80;;
7033;SDS011;3558;53.176;10.412;2024-02-23T15:11:43;1.87;;;0.90;;
7033;SDS011;3558;53.176;10.412;2024-02-23T15:14:08;2.58;;;0.95;;
7033;SDS011;3558;53.176;10.412;2024-02-23T15:16:34;1.38;;;0.80;;
7033;SDS011;3558;53.176;10.412;2024-02-23T15:19:01;1.57;;;0.70;;
7033;SDS011;3558;53.176;10.412;2024-02-23T15:21:26;2.10;;;0.80;;
7033;SDS011;3558;53.176;10.412;2024-02-23T15:23:52;1.88;;;0.80;;
7033;SDS011;3558;53.176;10.412;2024-02-23T15:26:17;1.37;;;0.87;;
7033;SDS011;3558;53.176;10.412;2024-02-23T15:28:43;1.70;;;0.90;;
7033;SDS011;3558;53.176;10.412;2024-02-23T15:31:09;1.63;;;0.80;;
7033;SDS011;3558;53.176;10.412;2024-02-23T15:33:34;2.13;;;0.80;;
7033;SDS011;3558;53.176;10.412;2024-02-23T15:36:03;2.10;;;0.80;;
7033;SDS011;3558;53.176;10.412;2024-02-23T15:38:30;1.73;;;0.70;;
7033;SDS011;3558;53.176;10.412;2024-02-23T15:40:56;1.80;;;0.73;;
7033;SDS011;3558;53.176;10.412;2024-02-23T15:43:21;1.90;;;0.77;;
7033;SDS011;3558;53.176;10.412;2024-02-23T15:45:47;2.22;;;0.60;;
7033;SDS011;3558;53.176;10.412;2024-02-23T15:48:13;1.97;;;0.60;;
7033;SDS011;3558;53.176;10.412;2024-02-23T15:50:38;1.77;;;0.70;;
7033;SDS011;3558;53.176;10.412;2024-02-23T15:53:04;1.42;;;0.65;;
7033;SDS011;3558;53.176;10.412;2024-02-23T15:55:29;1.85;;;0.60;;
7033;SDS011;3558;53.176;10.412;2024-02-23T15:57:55;1.92;;;0.65;;
7033;SDS011;3558;53.176;10.412;2024-02-23T16:00:21;1.57;;;0.77;;
7033;SDS011;3558;53.176;10.412;2024-02-23T16:02:46;1.50;;;0.60;;
7033;SDS011;3558;53.176;10.412;2024-02-23T16:05:12;2.42;;;0.70;;
7033;SDS011;3558;53.176;10.412;2024-02-23T16:07:37;1.70;;;0.60;;
7033;SDS011;3558;53.176;10.412;2024-02-23T16:10:03;1.40;;;0.60;;